Last 7 Days

Middletown-South

Hourly Data | America/Los_Angeles
as of 10/17/21 12:39 AM PDT
Date & Time Temp (°F) RH (%) Dew Pt (°F) Wet Bulb (°F) Wind Dir (°) Wind Spd (mph) Wind Gust (mph) Leaf Wet (mins) BatVolt (V) Latest Rain (In) Daily Rain (In) Daily Min Temp (°F) Daily Max Temp (°F) Daily Max Wind (mph) Daily Leaf Wet Hrs (hrs)
10/17/21 - 0000 46.9 43 25.6 38.3 S | 185 1.4 3.2 0.0 12.7 0.00 0.00 38.0 85.7 14.5 0.0
10/16/21 - 2300 49.2 39 25.1 39.4 S | 188 1.5 3.4 0.0 12.7 0.00 0.00 38.0 85.7 14.5 0.0
10/16/21 - 2200 51.4 36 25.2 40.5 S | 171 1.0 3.5 0.0 12.7 0.00 0.00 38.0 85.7 14.5 0.0
10/16/21 - 2100 55.7 31 25.3 42.6 S | 184 1.9 4.3 0.0 12.7 0.00 0.00 38.0 85.7 14.5 0.0
10/16/21 - 2000 62.9 24 25.8 45.9 SSW | 206 2.2 4.8 0.0 12.8 0.00 0.00 38.0 85.7 14.5 0.0
10/16/21 - 1900 74.4 15 23.8 49.6 SW | 221 4.3 12.9 0.0 12.8 0.00 0.00 38.0 85.7 14.5 0.0
10/16/21 - 1800 79.0 13 23.1 50.9 SSW | 196 3.4 12.1 0.0 12.9 0.00 0.00 38.0 85.7 14.5 0.0
10/16/21 - 1700 81.7 10 20.8 51.3 SW | 221 4.0 12.0 0.0 13.0 0.00 0.00 38.0 85.7 14.5 0.0
10/16/21 - 1600 82.9 10 21.8 51.8 SW | 217 5.7 14.5 0.0 13.0 0.00 0.00 38.0 85.7 14.5 0.0
10/16/21 - 1500 84.2 10 21.6 52.1 SE | 125 3.0 11.2 0.0 12.9 0.00 0.00 38.0 85.7 11.2 0.0
10/16/21 - 1400 82.1 11 23.1 51.9 ENE | 77 3.6 9.2 0.0 12.9 0.00 0.00 38.0 83.9 10.4 0.0
10/16/21 - 1300 80.8 12 24.4 51.8 ENE | 62 3.6 10.4 0.0 13.0 0.00 0.00 38.0 81.9 10.4 0.0
10/16/21 - 1200 77.8 14 25.1 51.0 NE | 48 1.6 5.0 0.0 13.2 0.00 0.00 38.0 81.1 5.0 0.0
10/16/21 - 1100 71.4 20 27.8 49.6 NNE | 28 1.2 3.8 0.0 13.2 0.00 0.00 38.0 75.0 3.8 0.0
10/16/21 - 1000 63.1 29 30.6 47.4 NNE | 30 0.6 3.0 0.0 13.2 0.00 0.00 38.0 67.9 3.0 0.0
10/16/21 - 0900 45.9 55 30.3 39.3 S | 186 0.2 1.9 0.0 13.5 0.00 0.00 38.0 57.0 2.6 0.0
10/16/21 - 0800 39.1 67 29.0 35.1 S | 188 0.6 1.8 0.0 13.3 0.00 0.00 38.0 45.2 2.6 0.0
10/16/21 - 0700 40.2 64 29.1 35.8 SSW | 194 1.2 2.2 0.0 12.6 0.00 0.00 39.7 45.2 2.6 0.0
10/16/21 - 0600 41.0 62 29.1 36.3 S | 181 1.0 2.3 0.0 12.6 0.00 0.00 40.4 45.2 2.6 0.0
10/16/21 - 0500 42.2 59 29.0 36.9 S | 180 1.1 2.5 0.0 12.6 0.00 0.00 41.2 45.2 2.6 0.0
10/16/21 - 0400 42.6 58 28.7 37.0 SSW | 201 1.4 2.5 0.0 12.6 0.00 0.00 42.0 45.2 2.6 0.0
10/16/21 - 0300 43.9 54 28.5 37.7 SSW | 206 1.6 2.6 0.0 12.7 0.00 0.00 43.5 45.2 2.6 0.0
10/16/21 - 0200 44.6 53 28.6 38.1 SSW | 200 1.6 2.6 0.0 12.7 0.00 0.00 43.9 45.2 2.6 0.0
10/16/21 - 0100 45.9 51 28.9 38.9 S | 175 1.1 2.1 0.0 12.7 0.00 0.00 38.1 84.9 8.1 0.0
10/16/21 - 0000 47.0 50 29.2 39.6 SSE | 167 0.9 1.8 0.0 12.7 0.00 0.00 38.1 84.9 8.1 0.0
10/15/21 - 2300 48.8 47 29.2 40.5 SSE | 166 0.8 2.4 0.0 12.7 0.00 0.00 38.1 84.9 8.1 0.0
10/15/21 - 2200 51.5 42 29.3 41.8 S | 190 1.2 2.4 0.0 12.7 0.00 0.00 38.1 84.9 8.1 0.0
10/15/21 - 2100 54.9 37 29.0 43.4 SSW | 195 1.3 3.7 0.0 12.7 0.00 0.00 38.1 84.9 8.1 0.0
10/15/21 - 2000 60.1 31 28.9 45.6 S | 171 1.0 3.9 0.0 12.8 0.00 0.00 38.1 84.9 8.1 0.0
10/15/21 - 1900 70.3 20 27.8 49.2 S | 184 1.8 7.5 0.0 12.8 0.00 0.00 38.1 84.9 8.1 0.0
10/15/21 - 1800 79.6 13 24.7 51.5 W | 269 2.1 6.5 0.0 12.9 0.00 0.00 38.1 84.9 8.1 0.0
10/15/21 - 1700 83.0 10 21.6 51.8 NE | 55 2.8 7.9 0.0 13.0 0.00 0.00 38.1 84.9 8.1 0.0
10/15/21 - 1600 83.7 10 21.0 51.9 NE | 34 2.5 8.1 0.0 12.9 0.00 0.00 38.1 84.9 8.1 0.0
10/15/21 - 1500 82.2 10 20.1 51.3 N | 10 2.6 8.0 0.0 12.9 0.00 0.00 38.1 83.3 8.0 0.0
10/15/21 - 1400 80.0 12 22.2 51.1 ENE | 59 2.6 7.9 0.0 13.0 0.00 0.00 38.1 81.3 7.9 0.0
10/15/21 - 1300 78.2 13 24.0 50.9 E | 88 2.6 7.1 0.0 13.0 0.00 0.00 38.1 79.7 7.6 0.0
10/15/21 - 1200 75.6 15 24.7 50.2 NE | 35 2.3 7.6 0.0 13.2 0.00 0.00 38.1 76.9 7.6 0.0
10/15/21 - 1100 71.9 18 26.1 49.4 NNE | 25 1.3 5.0 0.0 13.2 0.00 0.00 38.1 74.3 5.0 0.0
10/15/21 - 1000 64.6 26 29.2 47.5 NE | 47 0.3 2.7 0.0 13.2 0.00 0.00 38.1 69.7 3.8 0.0
10/15/21 - 0900 46.6 49 28.4 39.0 S | 185 0.2 1.6 0.0 13.5 0.00 0.00 38.1 57.7 3.8 0.0
10/15/21 - 0800 39.3 60 26.6 34.5 SSW | 201 1.5 2.7 0.0 13.6 0.00 0.00 38.1 43.3 3.8 0.0
10/15/21 - 0700 38.8 61 26.3 34.0 S | 188 1.4 2.5 0.0 12.6 0.00 0.00 38.1 43.3 3.8 0.0
10/15/21 - 0600 38.8 60 26.1 34.0 S | 182 1.2 2.2 0.0 12.6 0.00 0.00 38.1 43.3 3.8 0.0
10/15/21 - 0500 39.6 58 26.0 34.4 S | 185 1.2 2.1 0.0 12.6 0.00 0.00 38.7 43.3 3.8 0.0
10/15/21 - 0400 40.6 55 25.7 34.9 SSW | 196 1.4 3.1 0.0 12.7 0.00 0.00 40.1 43.3 3.8 0.0
10/15/21 - 0300 41.3 51 24.6 35.0 SSW | 195 1.3 2.5 0.0 12.7 0.00 0.00 40.6 43.3 3.8 0.0
10/15/21 - 0200 42.5 48 24.0 35.5 SSW | 203 1.6 3.8 0.0 12.7 0.00 0.00 41.5 43.3 3.8 0.0
10/15/21 - 0100 42.1 47 23.2 35.0 SSW | 195 1.2 3.4 0.0 12.7 0.00 0.00 35.7 77.6 17.2 0.0
10/15/21 - 0000 42.2 47 23.2 35.1 SSW | 197 1.4 2.4 0.0 12.7 0.00 0.00 35.7 77.6 17.2 0.0
10/14/21 - 2300 44.0 44 23.5 36.2 SSW | 196 1.4 3.2 0.0 12.7 0.00 0.00 35.7 77.6 17.2 0.0
10/14/21 - 2200 46.4 40 23.5 37.5 SSW | 198 1.4 3.1 0.0 12.7 0.00 0.00 35.7 77.6 17.2 0.0
10/14/21 - 2100 48.8 37 23.6 38.8 SSW | 202 1.5 3.9 0.0 12.7 0.00 0.00 35.7 77.6 17.2 0.0
10/14/21 - 2000 52.5 33 23.9 40.7 SSW | 197 1.5 2.6 0.0 12.8 0.00 0.00 35.7 77.6 17.2 0.0
10/14/21 - 1900 60.0 25 24.3 44.2 SW | 223 1.7 3.3 0.0 12.8 0.00 0.00 35.7 77.6 17.2 0.0
10/14/21 - 1800 74.3 13 20.0 48.8 N | 0 2.3 7.6 0.0 12.9 0.00 0.00 35.7 77.6 17.2 0.0
10/14/21 - 1700 76.5 12 19.6 49.4 NNE | 27 3.5 9.5 0.0 13.0 0.00 0.00 35.7 77.6 17.2 0.0
10/14/21 - 1600 76.8 12 20.3 49.7 NE | 40 4.3 11.8 0.0 13.0 0.00 0.00 35.7 77.6 17.2 0.0
10/14/21 - 1500 75.6 13 20.4 49.3 NE | 45 5.8 14.6 0.0 13.0 0.00 0.00 35.7 76.4 17.2 0.0
10/14/21 - 1400 74.2 13 20.1 48.8 NE | 34 5.2 12.8 0.0 13.0 0.00 0.00 35.7 75.8 17.2 0.0
10/14/21 - 1300 72.4 16 23.4 48.9 NNE | 26 5.9 17.2 0.0 13.1 0.00 0.00 35.7 73.4 17.2 0.0
10/14/21 - 1200 69.4 21 27.7 48.9 NE | 45 4.1 12.5 0.0 13.2 0.00 0.00 35.7 72.2 12.5 0.0
10/14/21 - 1100 65.4 28 31.2 48.5 ENE | 75 3.5 11.1 0.0 13.2 0.00 0.00 35.7 67.4 11.1 0.0
10/14/21 - 1000 60.7 38 34.9 48.0 ENE | 77 0.8 5.0 0.0 13.3 0.00 0.00 35.7 64.6 5.0 0.0
10/14/21 - 0900 44.5 68 34.1 40.0 SSE | 154 0.7 4.1 0.0 13.5 0.00 0.00 35.7 54.3 4.1 0.0
10/14/21 - 0800 36.3 85 32.2 34.7 S | 182 0.7 2.8 0.0 13.7 0.00 0.00 35.7 42.4 3.6 0.0
10/14/21 - 0700 37.5 84 33.0 35.7 S | 186 1.0 3.2 0.0 12.6 0.00 0.00 36.9 42.4 3.6 0.0
10/14/21 - 0600 37.4 87 34.0 36.0 SSW | 193 1.1 3.6 0.0 12.6 0.00 0.00 36.9 42.4 3.6 0.0
10/14/21 - 0500 38.0 85 33.9 36.3 SSW | 204 1.4 3.1 0.0 12.7 0.00 0.00 37.4 42.4 3.1 0.0
10/14/21 - 0400 38.3 81 33.1 36.2 SSW | 193 1.1 2.4 0.0 12.7 0.00 0.00 37.7 42.4 2.6 0.0
10/14/21 - 0300 39.2 79 33.4 36.8 S | 179 0.8 2.3 0.0 12.7 0.00 0.00 38.3 42.4 2.6 0.0
10/14/21 - 0200 41.3 81 35.8 39.0 SSW | 212 1.2 2.6 0.0 12.7 0.00 0.00 40.2 42.4 2.6 0.0
10/14/21 - 0100 42.2 84 37.8 40.4 SSW | 194 1.1 3.2 0.0 12.7 0.00 0.00 38.6 73.0 12.9 0.0
10/14/21 - 0000 43.4 83 38.7 41.5 S | 188 0.9 2.3 0.0 12.7 0.00 0.00 38.6 73.0 12.9 0.0
10/13/21 - 2300 45.3 82 40.0 43.1 S | 183 0.9 2.4 0.0 12.7 0.00 0.00 38.6 73.0 12.9 0.0
10/13/21 - 2200 47.5 77 40.7 44.5 S | 185 0.9 2.6 0.0 12.7 0.00 0.00 38.6 73.0 12.9 0.0
10/13/21 - 2100 50.6 70 41.4 46.4 SSW | 193 1.1 2.8 0.0 12.8 0.00 0.00 38.6 73.0 12.9 0.0
10/13/21 - 2000 54.6 63 42.3 48.6 SSW | 200 1.3 3.4 0.0 12.8 0.00 0.00 38.6 73.0 12.9 0.0
10/13/21 - 1900 61.4 53 44.2 52.3 S | 183 1.3 8.7 0.0 12.8 0.00 0.00 38.6 73.0 12.9 0.0
10/13/21 - 1800 67.0 44 44.1 54.2 WSW | 239 3.7 11.8 0.0 13.0 0.00 0.00 38.6 73.0 12.9 0.0
10/13/21 - 1700 71.1 25 31.6 51.0 S | 178 3.0 9.3 0.0 13.1 0.00 0.00 38.6 73.0 12.9 0.0
10/13/21 - 1600 71.8 19 27.8 49.8 NE | 50 3.7 10.6 0.0 13.0 0.00 0.00 38.6 72.6 12.9 0.0
10/13/21 - 1500 70.5 26 33.5 51.1 ENE | 77 3.8 12.9 0.0 13.0 0.00 0.00 38.6 72.6 12.9 0.0
10/13/21 - 1400 70.8 29 36.7 52.3 E | 89 3.2 8.4 0.0 13.0 0.00 0.00 38.6 72.6 10.1 0.0
10/13/21 - 1300 69.5 32 38.0 52.4 NE | 53 3.0 10.1 0.0 13.1 0.00 0.00 38.6 71.0 10.1 0.0
10/13/21 - 1200 67.3 30 34.5 50.3 NE | 37 2.0 8.0 0.0 13.2 0.00 0.00 38.6 69.3 8.0 0.0
10/13/21 - 1100 64.3 25 27.6 47.0 ENE | 71 2.8 7.8 0.0 13.2 0.00 0.00 38.6 66.7 7.8 0.0
10/13/21 - 1000 59.6 26 24.2 44.1 NNW | 347 2.5 6.8 0.0 13.2 0.00 0.00 38.6 63.5 6.8 0.0
10/13/21 - 0900 52.8 34 25.1 41.2 ENE | 69 0.9 3.8 0.0 13.4 0.00 0.00 38.6 58.6 4.1 0.0
10/13/21 - 0800 47.2 41 24.8 38.3 S | 183 0.8 4.1 0.0 13.5 0.00 0.00 38.6 48.1 4.1 0.0
10/13/21 - 0700 47.7 41 25.2 38.6 NNW | 339 0.6 3.4 0.0 12.7 0.00 0.00 38.6 48.1 3.4 0.0
10/13/21 - 0600 46.8 43 25.8 38.4 SSW | 212 0.2 2.6 0.0 12.7 0.00 0.00 38.6 47.7 3.0 0.0
10/13/21 - 0500 44.8 45 24.7 37.0 S | 189 0.4 2.7 0.0 12.7 0.00 0.00 38.6 46.0 3.0 0.0
10/13/21 - 0400 41.2 47 22.2 34.2 S | 186 0.8 3.0 0.0 12.7 0.00 0.00 38.6 43.5 3.0 0.0
10/13/21 - 0300 39.4 48 21.3 33.0 S | 182 0.9 2.7 0.0 12.7 0.00 0.00 38.6 40.1 2.7 0.0
10/13/21 - 0200 39.2 47 20.6 32.6 S | 177 0.8 2.2 0.0 12.7 0.00 0.00 38.6 39.9 2.2 0.0
10/13/21 - 0100 40.3 43 19.7 33.0 S | 183 0.8 3.0 0.0 12.7 0.00 0.00 39.4 71.2 19.8 0.0
10/13/21 - 0000 41.3 40 18.8 33.4 S | 184 1.1 3.8 0.0 12.7 0.00 0.00 40.4 71.2 19.8 0.0
10/12/21 - 2300 42.2 38 18.2 33.8 S | 189 1.3 3.1 0.0 12.7 0.00 0.00 41.4 71.2 19.8 0.0
10/12/21 - 2200 43.6 35 17.6 34.4 S | 186 1.3 3.5 0.0 12.7 0.00 0.00 42.2 71.2 19.8 0.0
10/12/21 - 2100 46.6 31 17.4 36.0 S | 180 1.3 4.2 0.0 12.8 0.00 0.00 42.2 71.2 19.8 0.0
10/12/21 - 2000 49.7 27 17.1 37.6 S | 175 1.1 3.0 0.0 12.8 0.00 0.00 42.2 71.2 19.8 0.0
10/12/21 - 1900 58.4 18 15.1 41.4 SSW | 205 1.4 4.3 0.0 12.8 0.00 0.00 42.2 71.2 19.8 0.0
10/12/21 - 1800 67.6 8 3.2 43.7 SSW | 204 1.8 9.3 0.0 13.0 0.00 0.00 42.2 71.2 19.8 0.0
10/12/21 - 1700 70.0 5 -3.6 44.0 NNE | 31 2.5 11.2 0.0 13.1 0.00 0.00 42.2 71.2 19.8 0.0
10/12/21 - 1600 69.9 5 -5.0 43.9 N | 3 2.9 11.5 0.0 13.1 0.00 0.00 42.2 70.9 19.8 0.0
10/12/21 - 1500 68.0 7 0.7 43.6 NNE | 31 3.9 12.7 0.0 13.1 0.00 0.00 42.2 69.6 19.8 0.0
10/12/21 - 1400 66.2 9 4.4 43.2 NNE | 19 4.5 13.7 0.0 13.1 0.00 0.00 42.2 67.1 19.8 0.0
10/12/21 - 1300 64.5 11 7.8 43.0 NE | 34 4.4 11.7 0.0 13.2 0.00 0.00 42.2 66.4 19.8 0.0
10/12/21 - 1200 61.5 13 10.2 42.0 NNE | 25 5.3 13.2 0.0 13.3 0.00 0.00 42.2 63.4 19.8 0.0
10/12/21 - 1100 58.4 17 13.4 41.1 NNE | 21 5.9 17.5 0.0 13.3 0.00 0.00 42.2 60.3 19.8 0.0
10/12/21 - 1000 55.2 21 15.8 40.1 N | 9 6.2 19.7 0.0 13.3 0.00 0.00 42.2 56.8 19.8 0.0
10/12/21 - 0900 52.0 24 16.4 38.7 NNE | 27 4.9 14.5 0.0 13.4 0.00 0.00 42.2 54.0 19.8 0.0
10/12/21 - 0800 45.7 31 16.7 35.4 N | 9 1.7 7.5 0.0 13.5 0.00 0.00 42.2 53.7 19.8 0.0
10/12/21 - 0700 48.0 29 16.9 36.7 NNE | 23 1.6 8.8 0.0 12.7 0.00 0.00 45.5 53.7 19.8 0.0
10/12/21 - 0600 49.8 26 16.6 37.6 NE | 41 2.9 13.3 0.0 12.7 0.00 0.00 47.9 53.7 19.8 0.0
10/12/21 - 0500 51.3 25 17.0 38.4 NNE | 13 3.7 15.3 0.0 12.7 0.00 0.00 49.6 53.7 19.8 0.0
10/12/21 - 0400 52.3 25 17.2 39.0 NNE | 16 6.7 19.8 0.0 12.7 0.00 0.00 51.4 53.7 19.8 0.0
10/12/21 - 0300 52.1 24 16.7 38.8 NNE | 18 5.3 17.0 0.0 12.7 0.00 0.00 51.4 53.7 17.0 0.0
10/12/21 - 0200 52.6 22 14.9 38.6 NNE | 23 4.3 15.0 0.0 12.7 0.00 0.00 51.4 53.7 15.0 0.0
10/12/21 - 0100 52.7 21 13.4 38.4 NNE | 28 3.7 17.4 0.0 12.7 0.00 0.00 41.3 67.3 23.6 0.0
10/12/21 - 0000 48.4 27 15.4 36.5 NW | 308 1.9 12.7 0.0 12.7 0.00 0.00 41.3 67.3 23.6 0.0
10/11/21 - 2300 42.8 36 17.9 34.0 S | 184 1.3 3.9 0.0 12.7 0.00 0.00 41.3 67.3 23.6 0.0
10/11/21 - 2200 47.1 28 15.2 35.8 SSW | 209 1.2 4.3 0.0 12.7 0.00 0.00 43.9 67.3 23.6 0.0
10/11/21 - 2100 55.0 16 9.1 38.8 N | 357 2.0 10.2 0.0 12.7 0.00 0.00 45.6 67.3 23.6 0.0
10/11/21 - 2000 57.9 16 11.4 40.6 N | 360 3.8 13.5 0.0 12.8 0.00 0.00 45.6 67.3 23.6 0.0
10/11/21 - 1900 59.9 16 12.9 41.8 NNE | 13 4.6 14.9 0.0 12.8 0.00 0.00 45.6 67.3 23.6 0.0
10/11/21 - 1800 62.5 12 9.7 42.4 NNE | 18 6.3 20.0 0.0 13.0 0.00 0.00 45.6 67.3 23.6 0.0
10/11/21 - 1700 64.8 10 7.9 43.1 NNE | 17 7.1 20.3 0.0 13.2 0.00 0.00 45.6 67.3 23.6 0.0
10/11/21 - 1600 65.8 10 7.8 43.5 NNE | 23 8.1 23.6 0.0 13.1 0.00 0.00 45.6 67.3 23.6 0.0
10/11/21 - 1500 66.0 14 15.0 44.7 NNE | 19 5.9 20.0 0.0 13.1 0.00 0.00 45.6 67.3 21.7 0.0
10/11/21 - 1400 64.8 16 17.2 44.7 NNE | 18 6.3 18.4 0.0 13.1 0.00 0.00 45.6 65.9 21.7 0.0
10/11/21 - 1300 63.5 17 18.4 44.4 NNE | 14 6.2 16.1 0.0 13.2 0.00 0.00 45.6 65.0 21.7 0.0
10/11/21 - 1200 60.8 22 21.2 43.9 NNE | 29 7.3 21.7 0.0 13.3 0.00 0.00 45.6 62.4 21.7 0.0
10/11/21 - 1100 58.8 26 24.1 43.7 NNE | 19 5.8 15.6 0.0 13.3 0.00 0.00 45.6 60.7 20.1 0.0
10/11/21 - 1000 55.6 31 25.6 42.7 N | 358 4.7 18.7 0.0 13.3 0.00 0.00 45.6 57.3 20.1 0.0
10/11/21 - 0900 51.4 39 27.0 41.1 N | 358 3.3 11.0 0.0 13.4 0.00 0.00 45.6 56.4 20.1 0.0
10/11/21 - 0800 48.5 44 27.5 39.8 NW | 322 3.7 15.7 0.0 13.5 0.00 0.00 45.6 56.4 20.1 0.0
10/11/21 - 0700 48.0 43 26.4 39.2 NNW | 338 2.5 9.6 0.0 12.6 0.00 0.00 45.6 56.4 20.1 0.0
10/11/21 - 0600 47.9 44 27.3 39.4 SSE | 154 2.3 12.1 0.0 12.7 0.00 0.00 46.4 56.4 20.1 0.0
10/11/21 - 0500 49.6 42 27.5 40.4 N | 356 2.5 14.8 0.0 12.7 0.00 0.00 47.1 56.4 20.1 0.0
10/11/21 - 0400 49.9 41 27.4 40.4 E | 100 2.4 11.2 0.0 12.7 0.00 0.00 47.5 56.4 20.1 0.0
10/11/21 - 0300 51.4 40 27.6 41.3 NE | 49 3.1 11.6 0.0 12.7 0.00 0.00 48.4 56.4 20.1 0.0
10/11/21 - 0200 54.8 34 26.6 42.6 NNW | 328 5.9 20.1 0.0 12.7 0.00 0.00 53.5 56.4 20.1 0.0
10/11/21 - 0100 56.7 32 27.1 43.6 NW | 308 5.2 18.2 0.0 12.7 0.00 0.00 38.3 81.0 19.1 0.0
10/11/21 - 0000 57.8 36 31.2 45.4 NW | 305 4.4 17.3 0.0 12.7 0.00 0.00 38.3 81.0 19.1 0.0
10/10/21 - 2300 61.8 27 26.8 45.8 NW | 312 5.2 19.1 0.0 12.7 0.00 0.00 38.3 81.0 19.1 0.0
10/10/21 - 2200 62.0 36 34.3 48.3 WNW | 294 3.3 11.5 0.0 12.7 0.00 0.00 38.3 81.0 15.6 0.0
10/10/21 - 2100 64.2 44 41.8 52.2 W | 273 2.7 12.7 0.0 12.7 0.00 0.00 38.3 81.0 15.6 0.0
10/10/21 - 2000 65.0 42 41.1 52.1 WSW | 238 2.0 7.8 0.0 12.8 0.00 0.00 38.3 81.0 15.6 0.0
10/10/21 - 1900 70.5 29 36.9 52.2 WSW | 244 3.4 13.4 0.0 12.8 0.00 0.00 38.3 81.0 15.6 0.0
10/10/21 - 1800 75.6 25 36.9 53.8 SSW | 196 3.1 12.9 0.0 12.9 0.00 0.00 38.3 81.0 15.6 0.0
10/10/21 - 1700 78.4 22 36.2 54.4 SW | 217 4.8 13.2 0.0 13.0 0.00 0.00 38.3 81.0 15.6 0.0
10/10/21 - 1600 79.7 20 34.6 54.2 WSW | 238 4.6 15.6 0.0 13.0 0.00 0.00 38.3 81.0 15.6 0.0
10/10/21 - 1500 78.8 21 35.0 54.1 SSW | 210 4.5 15.3 0.0 13.0 0.00 0.00 38.3 80.0 15.3 0.0
10/10/21 - 1400 78.2 22 36.3 54.4 SSW | 201 4.3 14.0 0.0 13.0 0.00 0.00 38.3 79.5 14.0 0.0
10/10/21 - 1300 77.2 21 34.8 53.5 NNE | 13 3.2 10.6 0.0 13.0 0.00 0.00 38.3 78.4 10.6 0.0
10/10/21 - 1200 75.1 23 34.8 53.0 NNE | 33 1.8 7.0 0.0 13.2 0.00 0.00 38.3 76.7 7.0 0.0
10/10/21 - 1100 69.4 31 37.3 52.0 N | 7 1.2 4.8 0.0 13.2 0.00 0.00 38.3 73.4 4.8 0.0
10/10/21 - 1000 62.3 41 38.6 50.0 NNE | 22 1.1 3.8 0.0 13.2 0.00 0.00 38.3 65.3 3.8 0.0
10/10/21 - 0900 48.6 68 38.2 43.8 ESE | 110 0.2 2.1 0.0 13.4 0.00 0.00 38.3 58.8 3.4 0.0
10/10/21 - 0800 38.9 88 35.6 37.6 S | 182 0.5 1.9 0.0 13.6 0.00 0.00 38.3 44.6 3.4 0.0
10/10/21 - 0700 39.0 87 35.6 37.6 S | 184 0.7 2.1 0.0 12.6 0.00 0.00 38.3 44.6 3.4 0.0
10/10/21 - 0600 39.9 86 36.1 38.4 SSW | 200 1.3 2.4 0.0 12.7 0.00 0.00 39.2 44.6 3.4 0.0
10/10/21 - 0500 40.7 85 36.5 39.0 S | 184 1.0 2.2 0.0 12.7 0.00 0.00 40.2 44.6 3.4 0.0
10/10/21 - 0400 41.8 83 37.0 39.8 S | 188 1.1 2.1 0.0 12.7 0.00 0.00 41.0 44.6 3.4 0.0
10/10/21 - 0300 42.7 81 37.2 40.4 S | 183 0.6 1.8 0.0 12.7 0.00 0.00 41.8 44.6 3.4 0.0
10/10/21 - 0200 43.9 79 37.7 41.3 SSW | 198 1.2 3.4 0.0 12.7 0.00 0.00 43.2 44.6 3.4 0.0
10/10/21 - 0100 45.4 75 38.1 42.2 SSW | 198 1.1 3.0 0.0 12.7 0.00 0.00 37.1 76.3 11.4 0.0
Max 84.2 88 44.2 54.4 - 8.1 23.6 0.0 13.7 0.00 0.00 53.5 85.7 23.6 0.0
Avg 56.7 37 25.6 42.9 - 2.5 8.1 0.0 12.9 0.00 - - - - -
Min 36.3 5 -5.0 32.6 - 0.2 1.6 0.0 12.6 0.00 0.00 35.7 39.9 2.2 0.0
Total - - - - - - - - - 0.00 - - - - -